createdAt,value
2022-10-19T00:01:23.417Z,1.00
2022-10-19T00:03:54.566Z,1.00
2022-10-19T00:06:33.890Z,1.00
2022-10-19T00:09:08.325Z,1.00
2022-10-19T00:11:39.689Z,1.00
2022-10-19T00:14:09.130Z,1.00
2022-10-19T00:16:39.292Z,1.00
2022-10-19T00:19:12.673Z,1.00
2022-10-19T00:21:41.618Z,1.00
2022-10-19T00:24:10.461Z,1.00
2022-10-19T00:26:38.954Z,1.00
2022-10-19T00:29:08.970Z,1.00
2022-10-19T00:31:37.522Z,1.00
2022-10-19T00:34:06.026Z,1.00
2022-10-19T00:36:37.082Z,1.00
2022-10-19T00:39:08.303Z,1.00
2022-10-19T00:41:38.253Z,1.00
2022-10-19T00:44:12.675Z,1.00
2022-10-19T00:46:49.497Z,1.00
2022-10-19T00:49:26.973Z,1.00
2022-10-19T00:52:02.765Z,1.00
2022-10-19T00:54:34.378Z,1.00
2022-10-19T00:57:04.617Z,1.00
2022-10-19T00:59:33.949Z,1.00
2022-10-19T01:02:04.806Z,1.00
2022-10-19T01:04:36.277Z,1.00
2022-10-19T01:07:08.806Z,1.00
2022-10-19T01:09:37.216Z,1.00
2022-10-19T01:12:27.274Z,1.00
2022-10-19T01:19:04.012Z,1.00
2022-10-19T01:21:51.640Z,1.00
2022-10-19T01:24:29.305Z,1.00
2022-10-19T01:27:23.137Z,1.00
2022-10-19T01:30:08.189Z,1.00
2022-10-19T01:32:49.347Z,1.00
2022-10-19T01:35:26.918Z,1.00
2022-10-19T01:37:59.657Z,1.00
2022-10-19T01:40:43.713Z,1.00
2022-10-19T01:43:15.277Z,1.00
2022-10-19T01:45:52.587Z,1.00
2022-10-19T01:48:29.971Z,1.00
2022-10-19T01:51:33.046Z,1.00
2022-10-19T01:54:06.910Z,1.00
2022-10-19T01:56:36.953Z,1.00
2022-10-19T01:59:08.152Z,4.60
2022-10-19T02:01:39.862Z,6.40
2022-10-19T02:04:08.933Z,14.80
2022-10-19T02:06:37.798Z,22.10
2022-10-19T02:09:06.252Z,33.60
2022-10-19T02:11:35.626Z,35.60
2022-10-19T02:14:12.669Z,37.80
2022-10-19T02:17:04.138Z,43.70
2022-10-19T02:19:33.668Z,44.40
2022-10-19T02:22:02.409Z,48.00
2022-10-19T02:24:30.827Z,48.40
2022-10-19T02:27:01.450Z,50.50
2022-10-19T02:29:30.237Z,58.30
2022-10-19T02:31:58.733Z,59.80
2022-10-19T02:34:27.466Z,60.40
2022-10-19T02:36:56.554Z,63.10
2022-10-19T02:39:25.553Z,64.30
2022-10-19T02:42:05.177Z,65.50
2022-10-19T02:45:19.954Z,64.90
2022-10-19T02:48:02.457Z,67.10
2022-10-19T02:50:31.135Z,65.80
2022-10-19T02:53:02.439Z,70.50
2022-10-19T02:55:32.486Z,79.50
2022-10-19T02:58:00.904Z,88.60
2022-10-19T03:00:29.257Z,88.40
2022-10-19T03:02:57.751Z,85.70
2022-10-19T03:05:26.345Z,90.40
2022-10-19T03:07:54.773Z,89.30
2022-10-19T03:10:23.477Z,90.10
2022-10-19T03:12:52.452Z,89.60
2022-10-19T03:15:21.477Z,91.20
2022-10-19T03:17:53.434Z,93.10
2022-10-19T03:20:21.928Z,94.30
2022-10-19T03:22:51.342Z,94.00
2022-10-19T03:25:20.269Z,95.50
2022-10-19T03:27:48.692Z,95.00
2022-10-19T03:30:17.171Z,96.70
2022-10-19T03:32:45.764Z,97.20
2022-10-19T03:35:14.244Z,97.30
2022-10-19T03:37:42.660Z,98.10
2022-10-19T03:40:11.887Z,98.10
2022-10-19T03:42:40.261Z,98.70
2022-10-19T03:45:09.148Z,99.90
2022-10-19T03:47:37.603Z,99.90
2022-10-19T03:50:06.946Z,99.90
2022-10-19T03:52:35.474Z,99.90
2022-10-19T03:55:05.042Z,99.90
2022-10-19T03:57:33.625Z,99.90
2022-10-19T04:00:03.353Z,99.90
2022-10-19T04:02:32.404Z,99.90
2022-10-19T04:05:00.789Z,99.90
2022-10-19T04:07:29.290Z,99.90
2022-10-19T04:09:57.868Z,99.90
2022-10-19T04:12:26.285Z,99.90
2022-10-19T04:14:57.329Z,99.90
2022-10-19T04:17:26.825Z,99.90
2022-10-19T04:19:55.182Z,99.90
2022-10-19T04:22:23.550Z,99.90
2022-10-19T04:24:52.630Z,99.90
2022-10-19T04:27:21.157Z,99.90
2022-10-19T04:29:49.509Z,99.90
2022-10-19T04:32:17.921Z,99.90
2022-10-19T04:34:46.311Z,99.90
2022-10-19T04:37:14.705Z,99.90
2022-10-19T04:39:44.285Z,99.90
2022-10-19T04:42:12.654Z,99.90
2022-10-19T04:44:41.114Z,99.90
2022-10-19T04:47:10.151Z,99.90
2022-10-19T04:49:38.536Z,99.90
2022-10-19T04:52:06.899Z,99.90
2022-10-19T04:54:35.283Z,99.90
2022-10-19T04:57:03.684Z,99.90
2022-10-19T04:59:32.018Z,99.90
2022-10-19T05:02:00.878Z,99.90
2022-10-19T05:04:29.218Z,99.90
2022-10-19T05:06:57.766Z,99.90
2022-10-19T05:09:26.435Z,99.90
2022-10-19T05:11:54.799Z,99.90
2022-10-19T05:14:23.306Z,99.90
2022-10-19T05:16:51.760Z,99.90
2022-10-19T05:19:20.222Z,99.90
2022-10-19T05:21:48.598Z,99.90
2022-10-19T05:24:17.100Z,99.90
2022-10-19T05:26:45.686Z,99.90
2022-10-19T05:29:15.461Z,99.90
2022-10-19T05:31:44.189Z,99.90
2022-10-19T05:34:12.547Z,99.90
2022-10-19T05:36:42.010Z,99.90
2022-10-19T05:39:18.039Z,99.90
2022-10-19T05:41:47.778Z,99.90
2022-10-19T05:44:19.093Z,99.90
2022-10-19T05:46:48.322Z,99.90
2022-10-19T05:49:18.721Z,99.90
2022-10-19T05:51:47.742Z,99.90
2022-10-19T05:54:16.693Z,99.90
2022-10-19T05:56:45.475Z,99.90
2022-10-19T05:59:20.554Z,99.90
2022-10-19T06:01:49.654Z,99.90
2022-10-19T06:06:51.518Z,99.90
2022-10-19T06:09:20.229Z,99.90
2022-10-19T06:11:49.647Z,99.90
2022-10-19T06:14:18.277Z,99.90
2022-10-19T06:16:49.376Z,99.90
2022-10-19T06:19:17.817Z,99.90
2022-10-19T06:21:47.368Z,99.90
2022-10-19T06:24:15.794Z,99.90
2022-10-19T06:26:44.352Z,99.90
2022-10-19T06:29:12.837Z,99.90
2022-10-19T06:31:41.167Z,99.90
2022-10-19T06:34:09.696Z,99.90
2022-10-19T06:36:38.184Z,99.90
2022-10-19T06:39:06.597Z,99.90
2022-10-19T06:41:35.471Z,99.90
2022-10-19T06:44:04.383Z,99.90
2022-10-19T06:46:33.442Z,99.90
2022-10-19T06:49:03.188Z,99.90
2022-10-19T06:51:35.963Z,99.90
2022-10-19T06:54:04.557Z,99.90
2022-10-19T06:56:33.030Z,99.90
2022-10-19T06:59:01.624Z,99.90
2022-10-19T07:01:30.328Z,99.90
2022-10-19T07:03:58.737Z,99.90
2022-10-19T07:06:29.189Z,99.90
2022-10-19T07:08:57.541Z,99.90
2022-10-19T07:11:25.945Z,99.90
2022-10-19T07:13:55.113Z,99.90
2022-10-19T07:16:24.342Z,99.90
2022-10-19T07:18:54.620Z,99.90
2022-10-19T07:21:24.741Z,99.90
2022-10-19T07:23:53.310Z,99.90
2022-10-19T07:26:31.433Z,99.90
2022-10-19T07:28:59.834Z,99.90
2022-10-19T07:31:30.211Z,99.90
2022-10-19T07:34:01.018Z,99.90
2022-10-19T07:36:31.253Z,99.90
2022-10-19T07:39:00.022Z,99.90
2022-10-19T07:41:28.748Z,99.90
2022-10-19T07:43:58.633Z,99.90
2022-10-19T07:46:37.855Z,99.90
2022-10-19T07:49:10.713Z,99.90
2022-10-19T07:51:40.455Z,99.90
2022-10-19T07:54:09.089Z,99.90
2022-10-19T07:56:38.303Z,99.90
2022-10-19T07:59:06.932Z,99.90
2022-10-19T08:01:41.763Z,99.90
2022-10-19T08:06:58.812Z,99.90
2022-10-19T08:09:51.515Z,99.90
2022-10-19T08:12:15.929Z,99.90
2022-10-19T08:14:44.504Z,99.90
2022-10-19T08:17:17.837Z,99.90
2022-10-19T08:19:47.934Z,99.90
2022-10-19T08:22:16.356Z,99.90
2022-10-19T08:24:44.759Z,99.90
2022-10-19T08:27:13.263Z,99.90
2022-10-19T08:29:41.642Z,99.90
2022-10-19T08:32:10.113Z,99.90
2022-10-19T08:34:38.520Z,99.90
2022-10-19T08:37:14.963Z,99.90
2022-10-19T08:39:54.608Z,99.90
2022-10-19T08:43:00.018Z,99.90
2022-10-19T08:45:44.119Z,99.90
2022-10-19T08:48:29.334Z,99.90
2022-10-19T08:50:59.701Z,99.90
2022-10-19T08:53:46.748Z,99.90
2022-10-19T08:56:52.754Z,99.90
2022-10-19T08:59:43.982Z,99.90
2022-10-19T09:02:37.207Z,99.90
2022-10-19T09:05:23.691Z,99.90
2022-10-19T09:07:54.973Z,99.90
2022-10-19T09:10:31.117Z,99.90
2022-10-19T09:13:00.955Z,99.90
2022-10-19T09:15:39.817Z,99.90
2022-10-19T09:18:15.043Z,99.90
2022-10-19T09:20:47.365Z,99.90
2022-10-19T09:23:27.662Z,99.90
2022-10-19T09:25:58.588Z,99.90
2022-10-19T09:28:48.401Z,99.90
2022-10-19T09:31:43.571Z,99.90
2022-10-19T09:34:41.626Z,99.90
2022-10-19T09:37:14.291Z,99.90
2022-10-19T09:39:52.383Z,99.90
2022-10-19T09:42:23.809Z,99.90
2022-10-19T09:44:55.486Z,99.90
2022-10-19T09:47:43.317Z,99.90
2022-10-19T09:50:20.909Z,99.90
2022-10-19T09:52:59.541Z,99.90
2022-10-19T09:55:44.408Z,99.90
2022-10-19T09:58:15.794Z,99.90
2022-10-19T10:00:51.472Z,99.90
2022-10-19T10:03:30.253Z,99.90
2022-10-19T10:06:03.347Z,99.90
2022-10-19T10:08:35.758Z,99.90
2022-10-19T10:11:40.574Z,99.90
2022-10-19T10:14:37.106Z,99.90
2022-10-19T10:17:37.833Z,99.90
2022-10-19T10:20:19.281Z,99.90
2022-10-19T10:23:03.252Z,99.90
2022-10-19T10:25:34.925Z,99.90
2022-10-19T10:28:24.260Z,99.90
2022-10-19T10:31:01.637Z,99.90
2022-10-19T10:33:44.366Z,99.90
2022-10-19T10:36:14.253Z,99.90
2022-10-19T10:38:50.138Z,99.90
2022-10-19T10:41:23.926Z,99.90
2022-10-19T10:44:07.550Z,99.90
2022-10-19T10:46:43.622Z,99.90
2022-10-19T10:49:25.304Z,99.90
2022-10-19T10:52:01.220Z,99.90
2022-10-19T10:54:32.394Z,99.90
2022-10-19T10:57:19.249Z,99.90
2022-10-19T11:00:14.488Z,99.90
2022-10-19T11:03:16.016Z,99.90
2022-10-19T11:06:06.261Z,99.90
2022-10-19T11:08:37.026Z,99.90
2022-10-19T11:11:23.966Z,99.90
2022-10-19T11:14:22.151Z,99.90
2022-10-19T11:16:53.420Z,99.90
2022-10-19T11:19:34.114Z,99.90
2022-10-19T11:22:12.050Z,99.90
2022-10-19T11:24:52.318Z,99.90
2022-10-19T11:27:43.026Z,99.90
2022-10-19T11:30:22.656Z,99.90
2022-10-19T11:33:14.359Z,99.90
2022-10-19T11:35:54.854Z,99.90
2022-10-19T11:38:44.848Z,99.90
2022-10-19T11:41:19.041Z,99.90
2022-10-19T11:44:16.943Z,99.90
2022-10-19T11:47:18.770Z,99.90
2022-10-19T11:50:04.509Z,99.90
2022-10-19T11:52:55.970Z,99.90
2022-10-19T11:55:49.532Z,99.90
2022-10-19T11:58:17.847Z,99.90
2022-10-19T12:00:56.735Z,99.90
2022-10-19T12:03:37.027Z,99.90
2022-10-19T12:06:10.166Z,99.90
2022-10-19T12:08:56.251Z,99.90
2022-10-19T12:11:39.555Z,99.90
2022-10-19T12:14:17.496Z,99.90
2022-10-19T12:16:50.881Z,99.90
2022-10-19T12:19:33.926Z,99.90
2022-10-19T12:22:06.318Z,99.90
2022-10-19T12:24:35.574Z,99.90
2022-10-19T12:27:05.570Z,99.90
2022-10-19T12:29:41.831Z,99.90
2022-10-19T12:32:15.595Z,99.90
2022-10-19T12:35:04.193Z,99.90
2022-10-19T12:37:37.135Z,99.90
2022-10-19T12:40:25.278Z,99.90
2022-10-19T12:43:30.556Z,99.90
2022-10-19T12:46:11.034Z,99.90
2022-10-19T12:48:40.116Z,99.90
2022-10-19T12:51:14.089Z,99.90
2022-10-19T12:53:49.713Z,99.90
2022-10-19T12:56:26.531Z,99.90
2022-10-19T12:59:02.185Z,99.90
2022-10-19T13:01:45.122Z,99.90
2022-10-19T13:04:19.001Z,99.90
2022-10-19T13:06:51.271Z,99.90
2022-10-19T13:09:43.255Z,99.90
2022-10-19T13:12:21.776Z,99.90
2022-10-19T13:14:53.497Z,99.90
2022-10-19T13:17:44.586Z,99.90
2022-10-19T13:20:15.849Z,99.90
2022-10-19T13:22:49.747Z,99.90
2022-10-19T13:25:21.998Z,99.90
2022-10-19T13:27:52.170Z,99.90
2022-10-19T13:30:47.353Z,99.90
2022-10-19T13:33:31.200Z,99.90
2022-10-19T13:36:05.110Z,99.90
2022-10-19T13:41:17.805Z,99.90
2022-10-19T13:44:19.076Z,99.90
2022-10-19T13:46:50.442Z,99.90
2022-10-19T13:49:49.614Z,99.90
2022-10-19T13:52:36.907Z,99.90
2022-10-19T13:55:14.558Z,99.90
2022-10-19T13:58:07.374Z,99.90
2022-10-19T14:00:46.755Z,99.90
2022-10-19T14:03:27.001Z,99.90
2022-10-19T14:06:05.787Z,99.90
2022-10-19T14:09:06.369Z,99.90
2022-10-19T14:11:43.655Z,99.90
2022-10-19T14:14:18.592Z,99.90
2022-10-19T14:16:56.086Z,99.90
2022-10-19T14:19:30.623Z,99.90
2022-10-19T14:22:18.382Z,99.90
2022-10-19T14:24:46.774Z,99.90
2022-10-19T14:27:28.094Z,99.90
2022-10-19T14:29:56.566Z,99.90
2022-10-19T14:32:30.282Z,99.90
2022-10-19T14:35:07.183Z,99.90
2022-10-19T14:37:37.840Z,99.90
2022-10-19T14:40:26.822Z,99.90
2022-10-19T14:42:58.051Z,99.90
2022-10-19T14:45:28.337Z,99.90
2022-10-19T14:48:02.369Z,99.90
2022-10-19T14:50:49.135Z,99.90
2022-10-19T14:53:32.958Z,99.90
2022-10-19T14:56:21.076Z,99.90
2022-10-19T14:59:04.910Z,99.90
2022-10-19T15:01:33.512Z,99.90
2022-10-19T15:04:01.941Z,99.90
2022-10-19T15:06:33.861Z,99.90
2022-10-19T15:09:12.248Z,99.90
2022-10-19T15:11:50.630Z,99.90
2022-10-19T15:14:31.549Z,99.90
2022-10-19T15:17:02.466Z,99.90
2022-10-19T15:19:36.967Z,99.90
2022-10-19T15:22:38.027Z,99.90
2022-10-19T15:25:09.474Z,99.90
2022-10-19T15:27:50.878Z,99.90
2022-10-19T15:30:19.180Z,99.90
2022-10-19T15:33:14.914Z,99.90
2022-10-19T15:35:45.582Z,99.90
2022-10-19T15:38:24.231Z,99.90
2022-10-19T15:41:01.465Z,99.90
2022-10-19T15:43:35.584Z,99.90
2022-10-19T15:46:21.175Z,99.90
2022-10-19T15:48:55.494Z,99.90
2022-10-19T15:51:27.315Z,99.90
2022-10-19T15:54:01.343Z,99.90
2022-10-19T15:56:32.379Z,99.90
2022-10-19T15:59:02.662Z,99.90
2022-10-19T16:01:34.381Z,99.90
2022-10-19T16:04:03.091Z,99.90
2022-10-19T16:06:34.616Z,99.90
2022-10-19T16:09:03.442Z,99.90
2022-10-19T16:11:32.923Z,99.90
2022-10-19T16:14:01.366Z,99.90
2022-10-19T16:16:32.762Z,99.90
2022-10-19T16:19:02.197Z,99.90
2022-10-19T16:21:33.851Z,99.90
2022-10-19T16:24:02.523Z,99.90
2022-10-19T16:26:32.850Z,99.90
2022-10-19T16:29:02.226Z,99.90
2022-10-19T16:31:30.733Z,99.90
2022-10-19T16:33:59.335Z,99.90
2022-10-19T16:36:27.755Z,99.90
2022-10-19T16:38:56.151Z,99.90
2022-10-19T16:41:24.856Z,99.90
2022-10-19T16:43:57.161Z,99.90
2022-10-19T16:46:26.416Z,99.90
2022-10-19T16:48:54.866Z,99.90
2022-10-19T16:51:42.985Z,99.90
2022-10-19T16:54:13.149Z,99.90
2022-10-19T16:56:46.173Z,99.90
2022-10-19T16:59:17.449Z,99.90
2022-10-19T17:01:47.206Z,99.90
2022-10-19T17:04:18.135Z,99.90
2022-10-19T17:06:46.501Z,99.90
2022-10-19T17:09:41.373Z,99.90
2022-10-19T17:12:03.781Z,99.90
2022-10-19T17:14:32.362Z,99.90
2022-10-19T17:17:00.909Z,99.90
2022-10-19T17:19:29.267Z,99.90
2022-10-19T17:21:59.861Z,99.90
2022-10-19T17:24:29.438Z,99.90
2022-10-19T17:26:57.907Z,99.90
2022-10-19T17:29:26.629Z,99.90
2022-10-19T17:31:55.032Z,99.90
2022-10-19T17:34:23.888Z,99.90
2022-10-19T17:36:52.313Z,99.90
2022-10-19T17:39:27.173Z,99.90
2022-10-19T17:42:02.363Z,99.90
2022-10-19T17:44:32.079Z,99.90
2022-10-19T17:47:01.306Z,99.30
2022-10-19T17:49:30.696Z,99.90
2022-10-19T17:51:59.315Z,96.60
2022-10-19T17:54:27.830Z,94.80
2022-10-19T17:56:56.447Z,92.80
2022-10-19T17:59:30.538Z,77.30
2022-10-19T18:02:05.203Z,72.10
2022-10-19T18:04:33.675Z,56.40
2022-10-19T18:07:02.027Z,45.10
2022-10-19T18:09:31.701Z,22.30
2022-10-19T18:12:03.476Z,27.50
2022-10-19T18:14:34.794Z,26.70
2022-10-19T18:17:03.152Z,31.90
2022-10-19T18:19:31.483Z,33.30
2022-10-19T18:21:59.970Z,14.60
2022-10-19T18:24:28.400Z,8.50
2022-10-19T18:26:56.780Z,1.70
2022-10-19T18:29:26.906Z,1.00
2022-10-19T18:31:55.881Z,1.00
2022-10-19T18:34:26.565Z,1.00
2022-10-19T18:36:55.857Z,1.00
2022-10-19T18:39:24.403Z,1.00
2022-10-19T18:41:55.924Z,1.00
2022-10-19T18:44:27.348Z,1.00
2022-10-19T18:46:58.475Z,1.00
2022-10-19T18:49:27.213Z,1.00
2022-10-19T18:51:56.090Z,1.00
2022-10-19T18:54:27.009Z,1.00
2022-10-19T18:56:57.141Z,1.00
2022-10-19T19:01:56.553Z,1.00
2022-10-19T19:04:26.184Z,1.00
2022-10-19T19:06:55.340Z,1.00
2022-10-19T19:09:33.242Z,1.00
2022-10-19T19:12:02.906Z,1.00
2022-10-19T19:14:32.481Z,1.00
2022-10-19T19:17:03.933Z,1.00
2022-10-19T19:19:33.516Z,1.00
2022-10-19T19:22:07.928Z,1.00
2022-10-19T19:24:39.219Z,1.00
2022-10-19T19:27:08.452Z,1.00
2022-10-19T19:29:37.578Z,1.00
2022-10-19T19:32:06.987Z,1.00
2022-10-19T19:34:36.638Z,1.00
2022-10-19T19:37:10.475Z,1.00
2022-10-19T19:39:43.290Z,1.00
2022-10-19T19:42:12.938Z,1.00
2022-10-19T19:44:43.451Z,1.00
2022-10-19T19:47:13.063Z,1.00
2022-10-19T19:49:44.135Z,1.00
2022-10-19T19:52:13.446Z,1.00
2022-10-19T19:54:43.099Z,1.00
2022-10-19T19:57:13.390Z,1.00
2022-10-19T19:59:42.999Z,1.00
2022-10-19T20:02:14.296Z,1.00
2022-10-19T20:04:43.879Z,1.00
2022-10-19T20:07:19.535Z,1.00
2022-10-19T20:09:58.141Z,1.00
2022-10-19T20:12:30.714Z,1.00
2022-10-19T20:14:59.946Z,1.00
2022-10-19T20:17:29.751Z,1.00
2022-10-19T20:20:01.461Z,1.00
2022-10-19T20:22:31.633Z,1.00
2022-10-19T20:25:04.745Z,1.00
2022-10-19T20:27:38.130Z,1.00
2022-10-19T20:30:08.412Z,1.00
2022-10-19T20:32:38.519Z,1.00
2022-10-19T20:35:10.130Z,1.00
2022-10-19T20:37:39.879Z,1.00
2022-10-19T20:40:11.150Z,1.00
2022-10-19T20:42:41.323Z,1.00
2022-10-19T20:45:14.659Z,1.00
2022-10-19T20:47:43.769Z,1.00
2022-10-19T20:50:14.286Z,1.00
2022-10-19T20:52:44.233Z,1.00
2022-10-19T20:55:13.835Z,1.00
2022-10-19T20:57:42.995Z,1.00
2022-10-19T21:00:12.688Z,1.00
2022-10-19T21:02:41.771Z,1.00
2022-10-19T21:05:11.692Z,1.00
2022-10-19T21:07:41.072Z,1.00
2022-10-19T21:10:10.474Z,1.00
2022-10-19T21:12:43.053Z,1.00
2022-10-19T21:15:13.664Z,1.00
2022-10-19T21:17:42.730Z,1.00
2022-10-19T21:20:12.497Z,1.00
2022-10-19T21:22:42.636Z,1.00
2022-10-19T21:25:13.215Z,1.00
2022-10-19T21:27:42.700Z,1.00
2022-10-19T21:30:12.804Z,1.00
2022-10-19T21:32:42.433Z,1.00
2022-10-19T21:35:11.639Z,1.00
2022-10-19T21:37:41.230Z,1.00
2022-10-19T21:40:14.291Z,1.00
2022-10-19T21:42:43.617Z,1.00
2022-10-19T21:45:29.150Z,1.00
2022-10-19T21:48:01.461Z,1.00
2022-10-19T21:50:34.512Z,1.00
2022-10-19T21:53:04.091Z,1.00
2022-10-19T21:55:36.622Z,1.00
2022-10-19T21:58:06.438Z,1.00
2022-10-19T22:00:35.954Z,1.00
2022-10-19T22:03:08.167Z,1.00
2022-10-19T22:05:38.792Z,1.00
2022-10-19T22:08:08.654Z,1.00
2022-10-19T22:10:40.030Z,1.00
2022-10-19T22:13:10.378Z,1.00
2022-10-19T22:15:40.901Z,1.00
2022-10-19T22:18:10.946Z,1.00
2022-10-19T22:20:41.612Z,1.00
2022-10-19T22:23:12.997Z,1.00
2022-10-19T22:25:42.061Z,1.00
2022-10-19T22:28:11.086Z,1.00
2022-10-19T22:30:41.821Z,1.00
2022-10-19T22:33:10.867Z,1.00
2022-10-19T22:35:41.505Z,1.00
2022-10-19T22:38:10.665Z,1.00
2022-10-19T22:40:39.687Z,1.00
2022-10-19T22:43:08.368Z,1.00
2022-10-19T22:45:37.693Z,1.00
2022-10-19T22:48:06.462Z,1.00
2022-10-19T22:50:35.090Z,1.00
2022-10-19T22:53:04.219Z,1.00
2022-10-19T22:55:33.139Z,1.00
2022-10-19T22:58:02.184Z,1.00
2022-10-19T23:00:32.050Z,1.00
2022-10-19T23:03:01.132Z,1.00
2022-10-19T23:05:31.233Z,1.00
2022-10-19T23:08:00.226Z,1.00
2022-10-19T23:10:28.896Z,1.00
2022-10-19T23:12:58.210Z,1.00
2022-10-19T23:15:29.211Z,1.00
2022-10-19T23:18:02.137Z,1.00
2022-10-19T23:20:31.404Z,1.00
2022-10-19T23:23:00.694Z,1.00
2022-10-19T23:25:30.086Z,1.00
2022-10-19T23:27:59.469Z,1.00
2022-10-19T23:30:28.525Z,1.00
2022-10-19T23:32:57.584Z,1.00
2022-10-19T23:35:26.815Z,1.00
2022-10-19T23:37:55.586Z,1.00
2022-10-19T23:40:25.082Z,1.00
2022-10-19T23:42:54.250Z,1.00
2022-10-19T23:45:23.392Z,1.00
2022-10-19T23:47:54.351Z,1.00
2022-10-19T23:50:26.246Z,1.00
2022-10-19T23:52:56.706Z,1.00
2022-10-19T23:55:28.814Z,1.00
2022-10-19T23:57:58.333Z,1.00
